sensor_id;sensor_type;location;lat;lon;timestamp;pressure;altitude;pressure_sealevel;temperature;humidity
57568;BME280;43403;51.948;5.922;2023-06-10T00:00:05;101424.47;;;23.10;56.48
57568;BME280;43403;51.948;5.922;2023-06-10T00:02:32;101418.09;;;23.04;57.00
57568;BME280;43403;51.948;5.922;2023-06-10T00:04:59;101428.22;;;23.02;56.93
57568;BME280;43403;51.948;5.922;2023-06-10T00:07:25;101423.03;;;23.01;57.13
57568;BME280;43403;51.948;5.922;2023-06-10T00:09:52;101421.22;;;22.95;57.53
57568;BME280;43403;51.948;5.922;2023-06-10T00:12:18;101430.28;;;22.94;57.40
57568;BME280;43403;51.948;5.922;2023-06-10T00:14:46;101430.09;;;22.88;57.64
57568;BME280;43403;51.948;5.922;2023-06-10T00:17:14;101427.44;;;22.88;57.14
57568;BME280;43403;51.948;5.922;2023-06-10T00:19:41;101428.47;;;22.87;58.13
57568;BME280;43403;51.948;5.922;2023-06-10T00:22:08;101432.59;;;22.83;58.15
57568;BME280;43403;51.948;5.922;2023-06-10T00:24:37;101433.66;;;22.76;58.43
57568;BME280;43403;51.948;5.922;2023-06-10T00:27:04;101424.41;;;22.71;58.18
57568;BME280;43403;51.948;5.922;2023-06-10T00:29:33;101422.38;;;22.67;58.14
57568;BME280;43403;51.948;5.922;2023-06-10T00:31:59;101430.00;;;22.63;58.57
57568;BME280;43403;51.948;5.922;2023-06-10T00:34:26;101426.31;;;22.58;58.24
57568;BME280;43403;51.948;5.922;2023-06-10T00:36:52;101424.09;;;22.55;58.01
57568;BME280;43403;51.948;5.922;2023-06-10T00:39:19;101432.09;;;22.55;57.99
57568;BME280;43403;51.948;5.922;2023-06-10T00:41:45;101434.78;;;22.48;58.05
57568;BME280;43403;51.948;5.922;2023-06-10T00:44:12;101428.41;;;22.42;58.29
57568;BME280;43403;51.948;5.922;2023-06-10T00:46:38;101436.03;;;22.45;57.74
57568;BME280;43403;51.948;5.922;2023-06-10T00:49:06;101438.13;;;22.37;58.32
57568;BME280;43403;51.948;5.922;2023-06-10T00:51:32;101438.31;;;22.42;57.67
57568;BME280;43403;51.948;5.922;2023-06-10T00:53:59;101438.94;;;22.37;57.84
57568;BME280;43403;51.948;5.922;2023-06-10T00:56:26;101438.31;;;22.35;57.72
57568;BME280;43403;51.948;5.922;2023-06-10T00:58:53;101432.97;;;22.28;57.42
57568;BME280;43403;51.948;5.922;2023-06-10T01:01:19;101439.13;;;22.22;58.00
57568;BME280;43403;51.948;5.922;2023-06-10T01:03:46;101442.66;;;22.16;57.63
57568;BME280;43403;51.948;5.922;2023-06-10T01:06:18;101434.81;;;22.15;57.13
57568;BME280;43403;51.948;5.922;2023-06-10T01:11:36;101434.84;;;22.08;57.38
57568;BME280;43403;51.948;5.922;2023-06-10T01:14:07;101434.44;;;22.04;57.07
57568;BME280;43403;51.948;5.922;2023-06-10T01:16:35;101439.97;;;22.03;56.91
57568;BME280;43403;51.948;5.922;2023-06-10T01:19:03;101431.38;;;21.94;57.24
57568;BME280;43403;51.948;5.922;2023-06-10T01:21:29;101438.56;;;21.94;57.06
57568;BME280;43403;51.948;5.922;2023-06-10T01:24:00;101443.06;;;21.93;56.98
57568;BME280;43403;51.948;5.922;2023-06-10T01:26:32;101433.63;;;21.90;56.43
57568;BME280;43403;51.948;5.922;2023-06-10T01:29:07;101437.56;;;21.88;56.96
57568;BME280;43403;51.948;5.922;2023-06-10T01:31:46;101453.34;;;21.83;56.83
57568;BME280;43403;51.948;5.922;2023-06-10T01:34:17;101449.06;;;21.82;56.32
57568;BME280;43403;51.948;5.922;2023-06-10T01:36:48;101449.84;;;21.76;56.66
57568;BME280;43403;51.948;5.922;2023-06-10T01:39:17;101450.47;;;21.71;56.62
57568;BME280;43403;51.948;5.922;2023-06-10T01:41:45;101445.13;;;21.58;56.84
57568;BME280;43403;51.948;5.922;2023-06-10T01:44:12;101450.69;;;21.56;57.17
57568;BME280;43403;51.948;5.922;2023-06-10T01:46:38;101447.59;;;21.52;56.84
57568;BME280;43403;51.948;5.922;2023-06-10T01:49:05;101456.19;;;21.48;56.88
57568;BME280;43403;51.948;5.922;2023-06-10T01:51:31;101455.19;;;21.49;56.79
57568;BME280;43403;51.948;5.922;2023-06-10T01:53:57;101450.25;;;21.46;56.92
57568;BME280;43403;51.948;5.922;2023-06-10T01:56:24;101451.50;;;21.43;56.79
57568;BME280;43403;51.948;5.922;2023-06-10T01:58:51;101454.53;;;21.40;56.52
57568;BME280;43403;51.948;5.922;2023-06-10T02:01:21;101448.56;;;21.38;56.63
57568;BME280;43403;51.948;5.922;2023-06-10T02:03:47;101455.13;;;21.36;56.76
57568;BME280;43403;51.948;5.922;2023-06-10T02:06:14;101455.34;;;21.34;56.81
57568;BME280;43403;51.948;5.922;2023-06-10T02:08:40;101456.56;;;21.31;57.21
57568;BME280;43403;51.948;5.922;2023-06-10T02:11:07;101451.22;;;21.25;57.27
57568;BME280;43403;51.948;5.922;2023-06-10T02:13:34;101452.25;;;21.24;57.05
57568;BME280;43403;51.948;5.922;2023-06-10T02:16:01;101459.00;;;21.20;57.26
57568;BME280;43403;51.948;5.922;2023-06-10T02:18:28;101458.56;;;21.16;57.27
57568;BME280;43403;51.948;5.922;2023-06-10T02:20:54;101460.25;;;21.17;56.78
57568;BME280;43403;51.948;5.922;2023-06-10T02:23:21;101463.09;;;21.16;57.61
57568;BME280;43403;51.948;5.922;2023-06-10T02:25:47;101470.44;;;21.07;58.11
57568;BME280;43403;51.948;5.922;2023-06-10T02:28:14;101455.66;;;21.04;57.86
57568;BME280;43403;51.948;5.922;2023-06-10T02:30:41;101457.28;;;20.99;58.22
57568;BME280;43403;51.948;5.922;2023-06-10T02:33:08;101467.34;;;20.97;58.36
57568;BME280;43403;51.948;5.922;2023-06-10T02:35:40;101458.53;;;20.96;58.21
57568;BME280;43403;51.948;5.922;2023-06-10T02:38:07;101464.66;;;20.97;58.82
57568;BME280;43403;51.948;5.922;2023-06-10T02:40:33;101469.78;;;20.91;59.01
57568;BME280;43403;51.948;5.922;2023-06-10T02:43:00;101472.47;;;20.91;59.34
57568;BME280;43403;51.948;5.922;2023-06-10T02:45:26;101465.03;;;20.87;59.46
57568;BME280;43403;51.948;5.922;2023-06-10T02:47:53;101467.69;;;20.80;60.02
57568;BME280;43403;51.948;5.922;2023-06-10T02:50:19;101472.41;;;20.78;59.93
57568;BME280;43403;51.948;5.922;2023-06-10T02:52:46;101472.16;;;20.73;60.03
57568;BME280;43403;51.948;5.922;2023-06-10T02:55:12;101461.25;;;20.68;59.92
57568;BME280;43403;51.948;5.922;2023-06-10T02:57:38;101467.63;;;20.73;59.95
57568;BME280;43403;51.948;5.922;2023-06-10T03:00:06;101474.59;;;20.68;61.17
57568;BME280;43403;51.948;5.922;2023-06-10T03:02:37;101467.19;;;20.63;61.24
57568;BME280;43403;51.948;5.922;2023-06-10T03:05:06;101467.75;;;20.59;61.79
57568;BME280;43403;51.948;5.922;2023-06-10T03:07:37;101461.56;;;20.51;62.43
57568;BME280;43403;51.948;5.922;2023-06-10T03:10:04;101465.66;;;20.54;61.68
57568;BME280;43403;51.948;5.922;2023-06-10T03:12:30;101467.72;;;20.52;62.58
57568;BME280;43403;51.948;5.922;2023-06-10T03:14:57;101475.06;;;20.50;62.64
57568;BME280;43403;51.948;5.922;2023-06-10T03:17:23;101482.25;;;20.49;62.66
57568;BME280;43403;51.948;5.922;2023-06-10T03:19:50;101476.94;;;20.49;62.80
57568;BME280;43403;51.948;5.922;2023-06-10T03:22:17;101480.81;;;20.47;62.57
57568;BME280;43403;51.948;5.922;2023-06-10T03:24:43;101483.91;;;20.50;62.40
57568;BME280;43403;51.948;5.922;2023-06-10T03:27:12;101475.44;;;20.40;63.80
57568;BME280;43403;51.948;5.922;2023-06-10T03:29:39;101478.50;;;20.37;63.62
57568;BME280;43403;51.948;5.922;2023-06-10T03:32:06;101483.56;;;20.32;64.27
57568;BME280;43403;51.948;5.922;2023-06-10T03:34:33;101482.56;;;20.33;63.81
57568;BME280;43403;51.948;5.922;2023-06-10T03:37:00;101481.31;;;20.29;63.54
57568;BME280;43403;51.948;5.922;2023-06-10T03:39:26;101489.09;;;20.30;63.43
57568;BME280;43403;51.948;5.922;2023-06-10T03:41:56;101485.63;;;20.30;64.38
57568;BME280;43403;51.948;5.922;2023-06-10T03:44:24;101483.53;;;20.25;65.70
57568;BME280;43403;51.948;5.922;2023-06-10T03:46:52;101480.88;;;20.25;64.99
57568;BME280;43403;51.948;5.922;2023-06-10T03:49:19;101489.66;;;20.19;65.68
57568;BME280;43403;51.948;5.922;2023-06-10T03:51:45;101485.31;;;20.18;65.90
57568;BME280;43403;51.948;5.922;2023-06-10T03:54:12;101488.19;;;20.17;66.52
57568;BME280;43403;51.948;5.922;2023-06-10T03:56:39;101497.19;;;20.15;66.31
57568;BME280;43403;51.948;5.922;2023-06-10T03:59:05;101493.91;;;20.13;66.90
57568;BME280;43403;51.948;5.922;2023-06-10T04:01:32;101490.63;;;20.11;65.67
57568;BME280;43403;51.948;5.922;2023-06-10T04:03:59;101492.44;;;20.11;67.21
57568;BME280;43403;51.948;5.922;2023-06-10T04:06:27;101492.44;;;20.11;66.76
57568;BME280;43403;51.948;5.922;2023-06-10T04:08:55;101493.66;;;20.08;67.53
57568;BME280;43403;51.948;5.922;2023-06-10T04:11:26;101502.69;;;20.07;67.62
57568;BME280;43403;51.948;5.922;2023-06-10T04:13:52;101499.78;;;20.09;67.40
57568;BME280;43403;51.948;5.922;2023-06-10T04:16:20;101495.69;;;20.06;68.71
57568;BME280;43403;51.948;5.922;2023-06-10T04:18:47;101502.47;;;20.09;67.79
57568;BME280;43403;51.948;5.922;2023-06-10T04:21:13;101499.13;;;20.00;69.80
57568;BME280;43403;51.948;5.922;2023-06-10T04:23:40;101503.63;;;20.00;69.59
57568;BME280;43403;51.948;5.922;2023-06-10T04:26:07;101507.09;;;20.00;69.15
57568;BME280;43403;51.948;5.922;2023-06-10T04:28:33;101509.97;;;19.99;69.77
57568;BME280;43403;51.948;5.922;2023-06-10T04:31:00;101511.81;;;19.98;70.65
57568;BME280;43403;51.948;5.922;2023-06-10T04:33:28;101505.44;;;19.99;67.88
57568;BME280;43403;51.948;5.922;2023-06-10T04:35:54;101508.75;;;20.01;70.66
57568;BME280;43403;51.948;5.922;2023-06-10T04:38:21;101514.72;;;20.03;68.93
57568;BME280;43403;51.948;5.922;2023-06-10T04:40:48;101511.03;;;20.04;70.19
57568;BME280;43403;51.948;5.922;2023-06-10T04:43:14;101512.44;;;20.00;71.08
57568;BME280;43403;51.948;5.922;2023-06-10T04:45:41;101515.09;;;20.00;70.60
57568;BME280;43403;51.948;5.922;2023-06-10T04:48:11;101511.41;;;20.01;71.11
57568;BME280;43403;51.948;5.922;2023-06-10T04:50:37;101514.28;;;20.00;70.60
57568;BME280;43403;51.948;5.922;2023-06-10T04:53:05;101517.50;;;19.95;73.09
57568;BME280;43403;51.948;5.922;2023-06-10T04:55:32;101523.47;;;19.97;72.32
57568;BME280;43403;51.948;5.922;2023-06-10T04:58:00;101522.00;;;19.94;73.07
57568;BME280;43403;51.948;5.922;2023-06-10T05:00:26;101528.59;;;19.99;73.17
57568;BME280;43403;51.948;5.922;2023-06-10T05:02:53;101529.03;;;20.02;72.44
57568;BME280;43403;51.948;5.922;2023-06-10T05:05:20;101521.69;;;20.04;72.16
57568;BME280;43403;51.948;5.922;2023-06-10T05:07:46;101523.53;;;20.04;73.24
57568;BME280;43403;51.948;5.922;2023-06-10T05:10:14;101521.50;;;20.06;73.59
57568;BME280;43403;51.948;5.922;2023-06-10T05:12:40;101526.66;;;20.07;73.78
57568;BME280;43403;51.948;5.922;2023-06-10T05:15:07;101524.41;;;20.11;73.26
57568;BME280;43403;51.948;5.922;2023-06-10T05:17:35;101527.31;;;20.16;72.33
57568;BME280;43403;51.948;5.922;2023-06-10T05:20:02;101528.97;;;20.17;72.74
57568;BME280;43403;51.948;5.922;2023-06-10T05:22:29;101524.47;;;20.18;73.67
57568;BME280;43403;51.948;5.922;2023-06-10T05:24:55;101523.66;;;20.17;73.70
57568;BME280;43403;51.948;5.922;2023-06-10T05:27:22;101528.38;;;20.22;71.47
57568;BME280;43403;51.948;5.922;2023-06-10T05:29:49;101534.53;;;20.22;73.29
57568;BME280;43403;51.948;5.922;2023-06-10T05:32:15;101530.47;;;20.26;73.08
57568;BME280;43403;51.948;5.922;2023-06-10T05:34:42;101530.72;;;20.31;72.51
57568;BME280;43403;51.948;5.922;2023-06-10T05:37:08;101528.44;;;20.28;74.80
57568;BME280;43403;51.948;5.922;2023-06-10T05:39:36;101532.34;;;20.32;71.78
57568;BME280;43403;51.948;5.922;2023-06-10T05:42:08;101535.44;;;20.36;71.90
57568;BME280;43403;51.948;5.922;2023-06-10T05:44:34;101530.75;;;20.38;74.31
57568;BME280;43403;51.948;5.922;2023-06-10T05:47:01;101526.47;;;20.37;73.24
57568;BME280;43403;51.948;5.922;2023-06-10T05:49:27;101532.84;;;20.43;73.04
57568;BME280;43403;51.948;5.922;2023-06-10T05:51:54;101532.44;;;20.46;73.84
57568;BME280;43403;51.948;5.922;2023-06-10T05:54:22;101528.19;;;20.51;73.02
57568;BME280;43403;51.948;5.922;2023-06-10T05:56:48;101533.50;;;20.51;73.56
57568;BME280;43403;51.948;5.922;2023-06-10T05:59:15;101537.00;;;20.52;73.61
57568;BME280;43403;51.948;5.922;2023-06-10T06:01:41;101533.13;;;20.54;71.25
57568;BME280;43403;51.948;5.922;2023-06-10T06:04:08;101533.75;;;20.57;73.37
57568;BME280;43403;51.948;5.922;2023-06-10T06:06:35;101534.63;;;20.64;70.41
57568;BME280;43403;51.948;5.922;2023-06-10T06:09:01;101534.63;;;20.64;71.91
57568;BME280;43403;51.948;5.922;2023-06-10T06:11:29;101532.38;;;20.61;72.51
57568;BME280;43403;51.948;5.922;2023-06-10T06:13:55;101539.22;;;20.70;71.75
57568;BME280;43403;51.948;5.922;2023-06-10T06:16:22;101534.69;;;20.70;71.38
57568;BME280;43403;51.948;5.922;2023-06-10T06:18:48;101533.28;;;20.74;69.45
57568;BME280;43403;51.948;5.922;2023-06-10T06:21:15;101535.75;;;20.76;71.49
57568;BME280;43403;51.948;5.922;2023-06-10T06:23:41;101535.34;;;20.79;73.32
57568;BME280;43403;51.948;5.922;2023-06-10T06:26:08;101536.56;;;20.77;73.92
57568;BME280;43403;51.948;5.922;2023-06-10T06:28:35;101535.41;;;20.86;72.10
57568;BME280;43403;51.948;5.922;2023-06-10T06:31:01;101540.31;;;20.89;72.42
57568;BME280;43403;51.948;5.922;2023-06-10T06:33:28;101534.81;;;20.97;69.33
57568;BME280;43403;51.948;5.922;2023-06-10T06:35:55;101536.50;;;21.05;71.43
57568;BME280;43403;51.948;5.922;2023-06-10T06:38:21;101540.19;;;21.04;71.91
57568;BME280;43403;51.948;5.922;2023-06-10T06:40:48;101533.44;;;21.08;70.23
57568;BME280;43403;51.948;5.922;2023-06-10T06:43:14;101533.25;;;21.09;70.67
57568;BME280;43403;51.948;5.922;2023-06-10T06:45:41;101542.31;;;21.15;70.55
57568;BME280;43403;51.948;5.922;2023-06-10T06:48:07;101535.34;;;21.21;69.69
57568;BME280;43403;51.948;5.922;2023-06-10T06:50:35;101543.56;;;21.26;72.12
57568;BME280;43403;51.948;5.922;2023-06-10T06:53:02;101535.38;;;21.27;69.99
57568;BME280;43403;51.948;5.922;2023-06-10T06:55:29;101543.59;;;21.32;68.88
57568;BME280;43403;51.948;5.922;2023-06-10T06:57:56;101543.44;;;21.41;68.47
57568;BME280;43403;51.948;5.922;2023-06-10T07:00:23;101542.22;;;21.43;72.63
57568;BME280;43403;51.948;5.922;2023-06-10T07:02:49;101540.41;;;21.50;69.25
57568;BME280;43403;51.948;5.922;2023-06-10T07:05:16;101541.22;;;21.58;68.11
57568;BME280;43403;51.948;5.922;2023-06-10T07:07:43;101550.69;;;21.67;69.68
57568;BME280;43403;51.948;5.922;2023-06-10T07:10:09;101543.31;;;21.69;69.59
57568;BME280;43403;51.948;5.922;2023-06-10T07:12:36;101543.94;;;21.78;69.23
57568;BME280;43403;51.948;5.922;2023-06-10T07:15:03;101543.53;;;21.81;68.67
57568;BME280;43403;51.948;5.922;2023-06-10T07:17:32;101539.44;;;21.85;69.74
57568;BME280;43403;51.948;5.922;2023-06-10T07:20:01;101547.25;;;21.86;68.68
57568;BME280;43403;51.948;5.922;2023-06-10T07:22:27;101545.59;;;21.92;67.83
57568;BME280;43403;51.948;5.922;2023-06-10T07:24:54;101549.31;;;21.98;67.77
57568;BME280;43403;51.948;5.922;2023-06-10T07:27:22;101546.22;;;22.01;67.82
57568;BME280;43403;51.948;5.922;2023-06-10T07:29:51;101558.75;;;22.07;66.77
57568;BME280;43403;51.948;5.922;2023-06-10T07:32:19;101557.72;;;22.15;66.40
57568;BME280;43403;51.948;5.922;2023-06-10T07:34:47;101550.13;;;22.18;67.81
57568;BME280;43403;51.948;5.922;2023-06-10T07:37:14;101554.88;;;22.23;67.33
57568;BME280;43403;51.948;5.922;2023-06-10T07:39:40;101554.09;;;22.29;66.82
57568;BME280;43403;51.948;5.922;2023-06-10T07:42:07;101552.22;;;22.36;65.25
57568;BME280;43403;51.948;5.922;2023-06-10T07:44:34;101554.88;;;22.43;65.71
57568;BME280;43403;51.948;5.922;2023-06-10T07:47:00;101548.91;;;22.47;66.54
57568;BME280;43403;51.948;5.922;2023-06-10T07:49:27;101549.53;;;22.56;64.71
57568;BME280;43403;51.948;5.922;2023-06-10T07:51:54;101540.25;;;22.59;64.25
57568;BME280;43403;51.948;5.922;2023-06-10T07:54:22;101550.31;;;22.70;65.03
57568;BME280;43403;51.948;5.922;2023-06-10T07:56:48;101546.81;;;22.76;64.71
57568;BME280;43403;51.948;5.922;2023-06-10T07:59:16;101559.75;;;22.86;64.38
57568;BME280;43403;51.948;5.922;2023-06-10T08:01:42;101553.56;;;22.92;63.75
57568;BME280;43403;51.948;5.922;2023-06-10T08:04:09;101552.94;;;23.03;63.53
57568;BME280;43403;51.948;5.922;2023-06-10T08:06:36;101554.13;;;23.14;63.09
57568;BME280;43403;51.948;5.922;2023-06-10T08:09:03;101553.47;;;23.19;63.37
57568;BME280;43403;51.948;5.922;2023-06-10T08:11:30;101554.25;;;23.26;63.82
57568;BME280;43403;51.948;5.922;2023-06-10T08:13:56;101556.69;;;23.34;62.98
57568;BME280;43403;51.948;5.922;2023-06-10T08:16:23;101554.97;;;23.53;61.49
57568;BME280;43403;51.948;5.922;2023-06-10T08:18:49;101548.53;;;23.61;62.03
57568;BME280;43403;51.948;5.922;2023-06-10T08:21:20;101554.22;;;23.78;61.08
57568;BME280;43403;51.948;5.922;2023-06-10T08:23:47;101554.34;;;23.90;60.18
57568;BME280;43403;51.948;5.922;2023-06-10T08:26:13;101554.69;;;24.00;60.22
57568;BME280;43403;51.948;5.922;2023-06-10T08:28:40;101560.09;;;24.18;60.39
57568;BME280;43403;51.948;5.922;2023-06-10T08:31:06;101556.19;;;24.39;59.45
57568;BME280;43403;51.948;5.922;2023-06-10T08:33:33;101560.28;;;24.67;57.31
57568;BME280;43403;51.948;5.922;2023-06-10T08:35:59;101551.19;;;25.05;57.77
57568;BME280;43403;51.948;5.922;2023-06-10T08:38:26;101559.34;;;25.47;57.33
57568;BME280;43403;51.948;5.922;2023-06-10T08:40:56;101550.25;;;25.90;55.81
57568;BME280;43403;51.948;5.922;2023-06-10T08:43:37;101553.72;;;26.33;53.94
57568;BME280;43403;51.948;5.922;2023-06-10T08:46:06;101542.47;;;26.71;52.28
57568;BME280;43403;51.948;5.922;2023-06-10T08:48:34;101556.09;;;27.05;52.17
57568;BME280;43403;51.948;5.922;2023-06-10T08:51:04;101550.69;;;27.46;51.01
57568;BME280;43403;51.948;5.922;2023-06-10T08:53:33;101554.38;;;27.73;50.79
57568;BME280;43403;51.948;5.922;2023-06-10T08:56:03;101551.19;;;28.05;49.94
57568;BME280;43403;51.948;5.922;2023-06-10T08:58:31;101548.44;;;28.39;47.91
57568;BME280;43403;51.948;5.922;2023-06-10T09:00:59;101555.84;;;28.66;48.43
57568;BME280;43403;51.948;5.922;2023-06-10T09:03:26;101548.88;;;28.92;47.71
57568;BME280;43403;51.948;5.922;2023-06-10T09:05:53;101551.66;;;29.19;47.85
57568;BME280;43403;51.948;5.922;2023-06-10T09:08:21;101551.31;;;29.37;45.63
57568;BME280;43403;51.948;5.922;2023-06-10T09:10:48;101549.63;;;29.58;46.04
57568;BME280;43403;51.948;5.922;2023-06-10T09:13:16;101552.50;;;29.79;45.75
57568;BME280;43403;51.948;5.922;2023-06-10T09:15:45;101549.44;;;30.03;44.42
57568;BME280;43403;51.948;5.922;2023-06-10T09:18:12;101547.41;;;30.20;44.33
57568;BME280;43403;51.948;5.922;2023-06-10T09:20:39;101546.53;;;30.47;44.22
57568;BME280;43403;51.948;5.922;2023-06-10T09:23:06;101547.44;;;30.68;44.54
57568;BME280;43403;51.948;5.922;2023-06-10T09:25:35;101542.34;;;30.82;42.10
57568;BME280;43403;51.948;5.922;2023-06-10T09:28:22;101539.44;;;30.99;42.73
57568;BME280;43403;51.948;5.922;2023-06-10T09:30:48;101543.28;;;31.13;42.46
57568;BME280;43403;51.948;5.922;2023-06-10T09:33:15;101540.88;;;31.27;42.16
57568;BME280;43403;51.948;5.922;2023-06-10T09:35:49;101538.19;;;31.37;41.92
57568;BME280;43403;51.948;5.922;2023-06-10T09:38:20;101544.47;;;31.53;42.22
57568;BME280;43403;51.948;5.922;2023-06-10T09:40:51;101545.81;;;31.56;41.55
57568;BME280;43403;51.948;5.922;2023-06-10T09:43:19;101536.88;;;31.55;40.70
57568;BME280;43403;51.948;5.922;2023-06-10T09:45:50;101542.28;;;31.70;41.24
57568;BME280;43403;51.948;5.922;2023-06-10T09:48:20;101534.69;;;31.88;40.45
57568;BME280;43403;51.948;5.922;2023-06-10T09:50:48;101539.59;;;32.01;41.21
57568;BME280;43403;51.948;5.922;2023-06-10T09:53:17;101533.03;;;32.18;40.52
57568;BME280;43403;51.948;5.922;2023-06-10T09:55:43;101534.66;;;32.29;39.51
57568;BME280;43403;51.948;5.922;2023-06-10T09:58:10;101531.63;;;32.36;40.56
57568;BME280;43403;51.948;5.922;2023-06-10T10:00:37;101531.63;;;32.41;40.04
57568;BME280;43403;51.948;5.922;2023-06-10T10:03:04;101530.53;;;32.42;39.54
57568;BME280;43403;51.948;5.922;2023-06-10T10:05:33;101525.94;;;32.42;39.00
57568;BME280;43403;51.948;5.922;2023-06-10T10:08:00;101529.69;;;32.57;39.15
57568;BME280;43403;51.948;5.922;2023-06-10T10:10:26;101535.59;;;32.74;38.73
57568;BME280;43403;51.948;5.922;2023-06-10T10:12:54;101522.84;;;32.69;38.33
57568;BME280;43403;51.948;5.922;2023-06-10T10:15:29;101523.63;;;32.80;38.38
57568;BME280;43403;51.948;5.922;2023-06-10T10:18:02;101527.91;;;32.92;39.20
57568;BME280;43403;51.948;5.922;2023-06-10T10:20:33;101519.13;;;33.05;37.39
57568;BME280;43403;51.948;5.922;2023-06-10T10:23:03;101525.97;;;32.97;36.91
57568;BME280;43403;51.948;5.922;2023-06-10T10:25:34;101526.53;;;32.99;37.75
57568;BME280;43403;51.948;5.922;2023-06-10T10:28:08;101518.84;;;33.17;37.35
57568;BME280;43403;51.948;5.922;2023-06-10T10:30:48;101523.84;;;33.34;36.96
57568;BME280;43403;51.948;5.922;2023-06-10T10:33:20;101519.88;;;33.55;36.60
57568;BME280;43403;51.948;5.922;2023-06-10T10:35:49;101512.78;;;33.59;35.98
57568;BME280;43403;51.948;5.922;2023-06-10T10:38:16;101511.41;;;33.62;37.12
57568;BME280;43403;51.948;5.922;2023-06-10T10:40:44;101524.34;;;33.75;36.48
57568;BME280;43403;51.948;5.922;2023-06-10T10:43:12;101514.53;;;33.79;35.14
57568;BME280;43403;51.948;5.922;2023-06-10T10:45:39;101514.84;;;33.78;35.81
57568;BME280;43403;51.948;5.922;2023-06-10T10:48:08;101508.19;;;33.89;35.33
57568;BME280;43403;51.948;5.922;2023-06-10T10:50:39;101512.69;;;33.99;35.66
57568;BME280;43403;51.948;5.922;2023-06-10T10:53:05;101506.84;;;34.16;35.60
57568;BME280;43403;51.948;5.922;2023-06-10T10:55:32;101506.56;;;34.17;35.01
57568;BME280;43403;51.948;5.922;2023-06-10T10:58:08;101504.28;;;34.24;34.74
57568;BME280;43403;51.948;5.922;2023-06-10T11:00:37;101506.72;;;34.26;34.26
57568;BME280;43403;51.948;5.922;2023-06-10T11:03:08;101498.56;;;34.50;34.67
57568;BME280;43403;51.948;5.922;2023-06-10T11:05:43;101507.91;;;34.63;34.40
57568;BME280;43403;51.948;5.922;2023-06-10T11:11:01;101486.59;;;34.89;33.60
57568;BME280;43403;51.948;5.922;2023-06-10T11:16:41;101481.66;;;35.10;32.51
57568;BME280;43403;51.948;5.922;2023-06-10T11:19:08;101479.94;;;35.14;31.68
57568;BME280;43403;51.948;5.922;2023-06-10T11:21:57;101483.06;;;35.27;32.32
57568;BME280;43403;51.948;5.922;2023-06-10T11:24:26;101485.81;;;35.27;32.16
57568;BME280;43403;51.948;5.922;2023-06-10T11:26:53;101475.41;;;35.29;31.94
57568;BME280;43403;51.948;5.922;2023-06-10T11:29:19;101475.69;;;35.27;31.38
57568;BME280;43403;51.948;5.922;2023-06-10T11:31:50;101474.56;;;35.28;30.33
57568;BME280;43403;51.948;5.922;2023-06-10T11:34:22;101478.69;;;35.44;30.74
57568;BME280;43403;51.948;5.922;2023-06-10T11:36:49;101470.09;;;35.51;31.04
57568;BME280;43403;51.948;5.922;2023-06-10T11:39:20;101479.44;;;35.64;29.92
57568;BME280;43403;51.948;5.922;2023-06-10T11:41:47;101474.72;;;35.70;30.28
57568;BME280;43403;51.948;5.922;2023-06-10T11:44:14;101468.78;;;35.81;29.98
57568;BME280;43403;51.948;5.922;2023-06-10T11:46:47;101461.59;;;35.86;31.49
57568;BME280;43403;51.948;5.922;2023-06-10T11:49:14;101477.47;;;35.97;29.92
57568;BME280;43403;51.948;5.922;2023-06-10T11:51:41;101473.41;;;36.09;29.61
57568;BME280;43403;51.948;5.922;2023-06-10T11:54:15;101471.13;;;36.16;29.61
57568;BME280;43403;51.948;5.922;2023-06-10T11:56:42;101460.09;;;36.21;29.10
57568;BME280;43403;51.948;5.922;2023-06-10T11:59:09;101464.22;;;36.32;30.16
57568;BME280;43403;51.948;5.922;2023-06-10T12:01:37;101469.47;;;36.56;32.43
57568;BME280;43403;51.948;5.922;2023-06-10T12:04:11;101462.50;;;36.50;29.65
57568;BME280;43403;51.948;5.922;2023-06-10T12:06:47;101459.75;;;36.64;30.10
57568;BME280;43403;51.948;5.922;2023-06-10T12:09:22;101463.34;;;36.59;29.39
57568;BME280;43403;51.948;5.922;2023-06-10T12:12:01;101461.66;;;36.77;30.59
57568;BME280;43403;51.948;5.922;2023-06-10T12:14:55;101449.91;;;36.63;29.46
57568;BME280;43403;51.948;5.922;2023-06-10T12:19:59;101439.53;;;36.88;29.93
57568;BME280;43403;51.948;5.922;2023-06-10T12:22:27;101444.44;;;36.99;29.63
57568;BME280;43403;51.948;5.922;2023-06-10T12:25:03;101443.59;;;37.13;28.99
57568;BME280;43403;51.948;5.922;2023-06-10T12:27:31;101437.41;;;37.07;28.59
57568;BME280;43403;51.948;5.922;2023-06-10T12:29:58;101434.00;;;37.24;29.29
57568;BME280;43403;51.948;5.922;2023-06-10T12:32:37;101438.34;;;37.25;29.63
57568;BME280;43403;51.948;5.922;2023-06-10T12:35:05;101434.88;;;37.33;29.71
57568;BME280;43403;51.948;5.922;2023-06-10T12:37:32;101441.00;;;37.39;29.23
57568;BME280;43403;51.948;5.922;2023-06-10T12:40:04;101433.28;;;37.41;28.46
57568;BME280;43403;51.948;5.922;2023-06-10T12:42:32;101430.78;;;37.53;28.82
57568;BME280;43403;51.948;5.922;2023-06-10T12:45:01;101430.28;;;37.51;29.53
57568;BME280;43403;51.948;5.922;2023-06-10T12:47:35;101427.53;;;37.51;29.01
57568;BME280;43403;51.948;5.922;2023-06-10T12:50:02;101425.22;;;37.67;29.21
57568;BME280;43403;51.948;5.922;2023-06-10T12:52:30;101429.22;;;37.61;28.81
57568;BME280;43403;51.948;5.922;2023-06-10T12:54:56;101431.56;;;37.54;28.96
57568;BME280;43403;51.948;5.922;2023-06-10T12:57:23;101432.28;;;37.59;29.12
57568;BME280;43403;51.948;5.922;2023-06-10T12:59:49;101424.72;;;37.65;29.06
57568;BME280;43403;51.948;5.922;2023-06-10T13:02:19;101428.91;;;37.63;28.08
57568;BME280;43403;51.948;5.922;2023-06-10T13:04:47;101426.19;;;37.71;28.64